Currently 63°F in Simi Valley, California, USA
63°F
63°F / 63°F
12 mph E
0.00"
Wednesday, November 14, 2018 1:29 AM PST

Simi Valley, California Weather Summary
Last 36 Hours

Temperature Winds Hourly Humidity Dewpoint
Time Report Norm Report Norm Max Gusts Precip. Rpt. Norm Rpt. Norm Pressure
1Wed 01:29 AM  63.0°F  56°F  12 mph E  4 mph  33 mph  0.00"  13%  56%  10°F  40°F  30.24"
2Wed 01:02 AM  63.3°F  56°F  10 mph E  4 mph  32 mph  ----  13%  56%  10°F  40°F  30.25"
Wed 01:00 AM  63.2°F  56°F  11 mph E  4 mph  32 mph  0.00"  13%  56%  10°F  40°F  30.25"
3Wed 12:15 AM  62.9°F  57°F  7 mph E  4 mph  18 mph  ----  14%  56%  10°F  40°F  30.26"
Wed 12:00 AM  63.1°F  57°F  8 mph E  5 mph  27 mph  0.00"  14%  56%  10°F  40°F  30.26"
Tue 11:00 PM  62.8°F  57°F  4 mph E  5 mph  26 mph  0.00"  14%  55%  11°F  41°F  30.28"
Tue 10:00 PM  63.4°F  58°F  9 mph NE  5 mph  20 mph  0.00"  14%  54%  10°F  41°F  30.28"
Tue 09:00 PM  64.2°F  59°F  3 mph NE  5 mph  22 mph  0.00"  13%  54%  9°F  41°F  30.26"
Tue 08:00 PM  64.3°F  59°F  3 mph NW  4 mph  17 mph  0.00"  13%  53%  10°F  42°F  30.27"
Tue 07:00 PM  64.5°F  61°F  5 mph E  5 mph  17 mph  0.00"  13%  52%  10°F  42°F  30.27"
Tue 06:00 PM  65.7°F  63°F  6 mph E  4 mph  26 mph  0.00"  12%  50%  10°F  44°F  30.27"
Tue 05:00 PM  67.2°F  66°F  13 mph E  5 mph  40 mph  0.00"  11%  47%  9°F  44°F  30.24"
Tue 04:00 PM  68.7°F  69°F  17 mph NE  6 mph  40 mph  0.00"  10%  43%  8°F  44°F  30.25"
Tue 03:00 PM  70.0°F  71°F  11 mph E  7 mph  37 mph  0.00"  10%  40%  8°F  44°F  30.25"
Tue 02:00 PM  70.1°F  72°F  13 mph E  7 mph  41 mph  0.00"  11%  37%  11°F  43°F  30.25"
Tue 01:00 PM  69.9°F  72°F  12 mph E  6 mph  34 mph  0.00"  11%  36%  10°F  43°F  30.27"
Tue 12:00 PM  70.6°F  71°F  13 mph E  6 mph  40 mph  0.01"  11%  37%  11°F  43°F  30.31"
Tue 11:00 AM  68.4°F  69°F  16 mph E  6 mph  39 mph  0.00"  12%  40%  12°F  43°F  30.32"
Tue 10:00 AM  65.9°F  67°F  14 mph E  5 mph  40 mph  0.00"  13%  45%  12°F  44°F  30.34"
Tue 09:00 AM  63.5°F  63°F  7 mph SE  5 mph  34 mph  0.00"  14%  51%  12°F  44°F  30.35"
Tue 08:00 AM  60.1°F  58°F  3 mph S  4 mph  31 mph  0.00"  16%  57%  12°F  42°F  30.35"
Tue 07:00 AM  57.9°F  55°F  6 mph E  5 mph  19 mph  0.00"  16%  58%  10°F  40°F  30.35"
Tue 06:00 AM  58.2°F  55°F  6 mph E  4 mph  29 mph  0.00"  16%  58%  10°F  40°F  30.34"
Tue 05:00 AM  58.4°F  55°F  13 mph E  4 mph  39 mph  0.00"  16%  58%  10°F  40°F  30.32"
Tue 04:00 AM  59.3°F  55°F  17 mph E  5 mph  37 mph  0.00"  15%  58%  9°F  40°F  30.30"
Tue 03:00 AM  59.1°F  56°F  13 mph E  4 mph  30 mph  0.00"  15%  58%  9°F  40°F  30.30"
Tue 02:00 AM  59.5°F  56°F  10 mph NE  4 mph  29 mph  0.00"  15%  57%  9°F  40°F  30.31"
Tue 01:00 AM  59.7°F  56°F  5 mph E  4 mph  22 mph  0.00"  14%  57%  9°F  41°F  30.32"
Tue 12:00 AM  60.2°F  57°F  8 mph NE  4 mph  22 mph  0.00"  14%  56%  9°F  41°F  30.33"
Mon 11:00 PM  61.4°F  58°F  7 mph E  4 mph  19 mph  0.00"  13%  55%  8°F  41°F  30.33"
Mon 10:00 PM  62.2°F  58°F  7 mph E  5 mph  21 mph  0.00"  13%  55%  8°F  41°F  30.31"
Mon 09:00 PM  62.5°F  59°F  6 mph W  4 mph  26 mph  0.00"  12%  55%  7°F  42°F  30.31"
Mon 08:00 PM  63.3°F  59°F  7 mph E  4 mph  30 mph  0.00"  12%  54%  7°F  42°F  30.27"
Mon 07:00 PM  62.8°F  61°F  9 mph E  4 mph  22 mph  0.00"  12%  53%  7°F  43°F  30.27"
Mon 06:00 PM  64.1°F  63°F  6 mph SE  4 mph  18 mph  0.00"  12%  51%  7°F  44°F  30.27"
Mon 05:00 PM  66.1°F  66°F  5 mph SE  5 mph  28 mph  0.00"  11%  48%  8°F  45°F  30.24"
Mon 04:00 PM  69.2°F  69°F  11 mph NE  6 mph  29 mph  0.00"  10%  43%  8°F  45°F  30.23"
Mon 03:00 PM  71.2°F  71°F  7 mph E  7 mph  29 mph  0.00"  10%  40%  9°F  45°F  30.23"
Mon 02:00 PM  71.6°F  72°F  11 mph NE  7 mph  31 mph  0.00"  10%  37%  10°F  44°F  30.21"

  1. Current weather data. No green row appears if the current weather data is also the high or low for the current day.
  2. High temperature for the current day.
  3. Low temperature for the current day.

The Simi Valley, California weather pages are a service of WeatherCurrents.
Copyright ©Wed Nov 14 01:30:49 PST 2018  WeatherCurrents. All rights reserved. - Submit questions and comments - Privacy Policy

This page automatically refreshes every 10 minutes.